Terminal Aerodrome Forecast
Issued by NWS

Home | Current Version | Previous Version | Graphics & Text | Print | Product List | Glossary On
Versions: 1 2 3 4 5 6 7 8 9 10 11 12 13 14 15 16 17 18
000
FTUS43 KUNR 291120
TAFGCC
TAF
KGCC 291120Z 2912/3012 18009KT P6SM SCT250
     FM291500 20017KT P6SM SCT250
     FM301000 17014KT P6SM SCT250=

USA.gov is the U.S. government's official web portal to all federal, state and local government web resources and services.